createdAt,value
2022-08-12T00:00:08.553Z,11.05
2022-08-12T00:02:55.265Z,12.05
2022-08-12T00:06:01.782Z,9.02
2022-08-12T00:08:48.800Z,5.78
2022-08-12T00:11:34.302Z,6.93
2022-08-12T00:14:19.939Z,7.25
2022-08-12T00:17:06.701Z,5.30
2022-08-12T00:19:52.212Z,7.63
2022-08-12T00:22:38.436Z,9.02
2022-08-12T00:26:01.312Z,6.72
2022-08-12T00:28:30.678Z,12.15
2022-08-12T00:31:16.120Z,9.40
2022-08-12T00:34:01.584Z,10.20
2022-08-12T00:36:48.840Z,11.98
2022-08-12T00:39:36.389Z,9.15
2022-08-12T00:42:12.981Z,8.35
2022-08-12T00:44:44.582Z,7.97
2022-08-12T00:47:24.807Z,9.55
2022-08-12T00:49:54.537Z,7.65
2022-08-12T00:52:22.130Z,7.78
2022-08-12T00:54:57.512Z,8.52
2022-08-12T00:57:35.702Z,7.60
2022-08-12T01:00:06.185Z,7.28
2022-08-12T01:02:35.520Z,7.28
2022-08-12T01:05:27.396Z,7.43
2022-08-12T01:08:13.445Z,8.48
2022-08-12T01:11:00.895Z,7.15
2022-08-12T01:13:30.045Z,8.05
2022-08-12T01:16:02.039Z,7.78
2022-08-12T01:18:33.531Z,10.15
2022-08-12T01:21:09.471Z,10.85
2022-08-12T01:23:47.227Z,6.78
2022-08-12T01:26:19.280Z,7.75
2022-08-12T01:28:48.395Z,6.65
2022-08-12T01:31:19.494Z,11.00
2022-08-12T01:34:02.938Z,8.32
2022-08-12T01:36:36.481Z,12.38
2022-08-12T01:39:04.655Z,9.32
2022-08-12T01:41:35.131Z,7.68
2022-08-12T01:44:03.049Z,8.75
2022-08-12T01:46:56.938Z,6.70
2022-08-12T01:50:00.520Z,6.15
2022-08-12T01:52:41.457Z,8.40
2022-08-12T01:55:10.050Z,7.43
2022-08-12T01:57:59.236Z,7.95
2022-08-12T02:00:46.118Z,12.93
2022-08-12T02:03:58.265Z,8.52
2022-08-12T02:07:00.605Z,6.30
2022-08-12T02:10:50.380Z,5.93
2022-08-12T02:16:50.994Z,6.72
2022-08-12T02:19:39.453Z,9.50
2022-08-12T02:22:28.205Z,7.95
2022-08-12T02:25:06.508Z,8.98
2022-08-12T02:27:42.343Z,8.35
2022-08-12T02:30:15.036Z,7.88
2022-08-12T02:32:45.371Z,7.00
2022-08-12T02:35:15.561Z,10.00
2022-08-12T02:37:43.878Z,6.70
2022-08-12T02:40:12.570Z,7.20
2022-08-12T02:42:56.596Z,10.75
2022-08-12T02:45:41.726Z,7.85
2022-08-12T02:48:10.537Z,7.22
2022-08-12T02:50:52.822Z,16.05
2022-08-12T02:53:20.590Z,11.88
2022-08-12T02:55:47.542Z,9.77
2022-08-12T02:58:15.364Z,10.27
2022-08-12T03:00:43.967Z,9.90
2022-08-12T03:03:13.430Z,9.38
2022-08-12T03:05:57.909Z,7.45
2022-08-12T03:08:32.445Z,8.15
2022-08-12T03:11:12.020Z,11.30
2022-08-12T03:13:45.954Z,7.43
2022-08-12T03:16:14.445Z,7.05
2022-08-12T03:18:45.690Z,7.93
2022-08-12T03:21:16.815Z,8.75
2022-08-12T03:23:45.808Z,6.93
2022-08-12T03:26:14.565Z,10.40
2022-08-12T03:28:51.788Z,8.30
2022-08-12T03:31:22.053Z,9.85
2022-08-12T03:34:02.166Z,9.15
2022-08-12T03:36:33.414Z,8.63
2022-08-12T03:39:15.862Z,7.15
2022-08-12T03:42:22.357Z,7.18
2022-08-12T03:45:29.570Z,6.32
2022-08-12T03:48:29.458Z,6.72
2022-08-12T03:51:16.564Z,8.02
2022-08-12T03:54:04.200Z,11.13
2022-08-12T03:56:51.899Z,11.02
2022-08-12T03:59:37.601Z,8.63
2022-08-12T04:02:04.970Z,6.95
2022-08-12T04:04:35.039Z,8.13
2022-08-12T04:07:07.789Z,7.03
2022-08-12T04:09:37.598Z,9.23
2022-08-12T04:12:23.424Z,9.88
2022-08-12T04:14:54.580Z,9.30
2022-08-12T04:17:21.964Z,12.30
2022-08-12T04:19:49.380Z,8.35
2022-08-12T04:22:16.789Z,11.50
2022-08-12T04:24:44.224Z,9.70
2022-08-12T04:27:17.228Z,8.55
2022-08-12T04:32:32.732Z,11.15
2022-08-12T04:34:59.963Z,8.73
2022-08-12T04:37:27.544Z,10.40
2022-08-12T04:39:55.865Z,9.52
2022-08-12T04:42:23.760Z,10.02
2022-08-12T04:44:50.645Z,8.38
2022-08-12T04:49:48.190Z,9.27
2022-08-12T04:52:15.510Z,9.57
2022-08-12T04:54:43.985Z,10.63
2022-08-12T04:57:10.964Z,10.35
2022-08-12T04:59:47.365Z,21.75
2022-08-12T05:02:21.212Z,13.60
2022-08-12T05:04:51.473Z,18.65
2022-08-12T05:07:18.691Z,8.82
2022-08-12T05:09:58.700Z,8.57
2022-08-12T05:12:34.315Z,8.82
2022-08-12T05:15:01.677Z,9.23
2022-08-12T05:17:28.660Z,9.45
2022-08-12T05:19:57.297Z,9.23
2022-08-12T05:22:26.092Z,10.15
2022-08-12T05:24:53.255Z,8.30
2022-08-12T05:27:22.755Z,8.05
2022-08-12T05:30:05.611Z,11.80
2022-08-12T05:32:37.101Z,9.85
2022-08-12T05:35:06.735Z,11.40
2022-08-12T05:37:35.142Z,8.85
2022-08-12T05:40:10.103Z,10.27
2022-08-12T05:42:38.052Z,7.97
2022-08-12T05:45:05.679Z,8.93
2022-08-12T05:47:44.876Z,9.93
2022-08-12T05:50:19.706Z,8.60
2022-08-12T05:52:48.102Z,7.65
2022-08-12T05:55:15.561Z,8.35
2022-08-12T05:57:48.324Z,11.05
2022-08-12T06:00:17.262Z,11.25
2022-08-12T06:02:46.399Z,7.63
2022-08-12T06:05:14.068Z,8.73
2022-08-12T06:08:01.616Z,6.95
2022-08-12T06:10:32.255Z,9.38
2022-08-12T06:13:05.240Z,8.77
2022-08-12T06:15:37.787Z,6.00
2022-08-12T06:18:13.964Z,6.55
2022-08-12T06:20:46.714Z,6.32
2022-08-12T06:23:15.458Z,11.38
2022-08-12T06:25:43.533Z,7.38
2022-08-12T06:28:21.069Z,8.30
2022-08-12T06:31:08.160Z,18.42
2022-08-12T06:33:54.932Z,7.35
2022-08-12T06:36:24.955Z,12.70
2022-08-12T06:38:57.767Z,12.88
2022-08-12T06:42:30.907Z,16.25
2022-08-12T06:44:30.716Z,7.43
2022-08-12T06:46:58.399Z,13.40
2022-08-12T06:49:25.529Z,10.55
2022-08-12T06:51:56.828Z,9.85
2022-08-12T06:54:31.967Z,10.57
2022-08-12T06:58:05.311Z,7.68
2022-08-12T06:59:50.897Z,8.57
2022-08-12T07:02:19.731Z,6.97
2022-08-12T07:04:47.505Z,5.25
2022-08-12T07:07:14.846Z,7.65
2022-08-12T07:10:06.033Z,9.43
2022-08-12T07:12:29.705Z,7.80
2022-08-12T07:15:01.511Z,7.07
2022-08-12T07:17:37.236Z,10.27
2022-08-12T07:20:29.470Z,10.73
2022-08-12T07:22:58.505Z,13.30
2022-08-12T07:25:31.044Z,9.95
2022-08-12T07:28:16.381Z,8.55
2022-08-12T07:30:46.830Z,9.52
2022-08-12T07:33:15.701Z,6.65
2022-08-12T07:35:47.669Z,7.38
2022-08-12T07:38:33.467Z,6.80
2022-08-12T07:41:06.051Z,11.77
2022-08-12T07:43:39.189Z,10.02
2022-08-12T07:46:08.247Z,9.95
2022-08-12T07:48:38.408Z,9.98
2022-08-12T07:51:05.878Z,9.32
2022-08-12T07:53:33.415Z,5.70
2022-08-12T07:56:16.091Z,7.80
2022-08-12T07:58:47.004Z,6.07
2022-08-12T08:01:21.326Z,4.72
2022-08-12T08:04:14.050Z,10.57
2022-08-12T08:06:44.763Z,5.43
2022-08-12T08:09:14.773Z,10.07
2022-08-12T08:12:00.151Z,7.13
2022-08-12T08:14:29.053Z,8.88
2022-08-12T08:16:57.789Z,6.78
2022-08-12T08:19:25.909Z,9.43
2022-08-12T08:21:58.663Z,7.10
2022-08-12T08:24:27.974Z,6.47
2022-08-12T08:26:58.407Z,10.60
2022-08-12T08:29:25.842Z,6.88
2022-08-12T08:32:00.913Z,9.95
2022-08-12T08:34:53.731Z,6.95
2022-08-12T08:37:17.236Z,5.53
2022-08-12T08:39:44.380Z,4.88
2022-08-12T08:42:30.005Z,6.05
2022-08-12T08:44:58.718Z,9.32
2022-08-12T08:47:26.080Z,6.88
2022-08-12T08:49:52.966Z,10.02
2022-08-12T08:52:39.684Z,5.70
2022-08-12T08:55:07.868Z,6.38
2022-08-12T08:57:43.179Z,2.70
2022-08-12T09:00:17.304Z,4.93
2022-08-12T09:02:49.121Z,10.18
2022-08-12T09:05:25.888Z,5.88
2022-08-12T09:08:14.327Z,3.78
2022-08-12T09:10:45.006Z,3.80
2022-08-12T09:14:12.061Z,4.88
2022-08-12T09:16:21.478Z,9.98
2022-08-12T09:18:52.377Z,4.80
2022-08-12T09:21:21.336Z,6.38
2022-08-12T09:26:46.374Z,4.82
2022-08-12T09:29:15.503Z,10.02
2022-08-12T09:32:03.316Z,7.88
2022-08-12T09:34:34.142Z,4.13
2022-08-12T09:37:19.312Z,5.18
2022-08-12T09:40:05.338Z,9.75
2022-08-12T09:46:06.670Z,4.50
2022-08-12T09:48:35.169Z,11.93
2022-08-12T09:51:04.400Z,7.93
2022-08-12T09:53:38.391Z,4.85
2022-08-12T09:56:59.171Z,7.18
2022-08-12T09:59:09.973Z,5.82
2022-08-12T10:02:43.342Z,8.07
2022-08-12T10:04:25.842Z,4.88
2022-08-12T10:06:53.898Z,3.75
2022-08-12T10:09:57.109Z,4.38
2022-08-12T10:12:31.476Z,7.18
2022-08-12T10:16:01.872Z,2.65
2022-08-12T10:18:06.895Z,3.53
2022-08-12T10:20:34.475Z,4.65
2022-08-12T10:23:01.623Z,2.03
2022-08-12T10:26:10.044Z,10.48
2022-08-12T10:29:01.916Z,3.20
2022-08-12T10:32:01.685Z,2.85
2022-08-12T10:34:25.921Z,4.32
2022-08-12T10:37:10.459Z,4.97
2022-08-12T10:40:06.905Z,2.65
2022-08-12T10:43:00.618Z,2.28
2022-08-12T10:45:30.433Z,4.10
2022-08-12T10:48:20.456Z,3.25
2022-08-12T10:50:56.710Z,2.40
2022-08-12T10:53:45.421Z,5.85
2022-08-12T10:56:15.416Z,4.25
2022-08-12T10:58:46.111Z,3.13
2022-08-12T11:01:50.531Z,13.15
2022-08-12T11:04:23.266Z,2.08
2022-08-12T11:09:41.574Z,4.05
2022-08-12T11:12:56.674Z,2.67
2022-08-12T11:15:19.133Z,7.07
2022-08-12T11:17:54.335Z,2.83
2022-08-12T11:20:30.681Z,3.38
2022-08-12T11:23:24.638Z,2.17
2022-08-12T11:25:57.733Z,7.80
2022-08-12T11:28:33.794Z,4.60
2022-08-12T11:31:04.329Z,2.85
2022-08-12T11:34:04.453Z,4.80
2022-08-12T11:36:22.262Z,5.13
2022-08-12T11:38:50.905Z,6.22
2022-08-12T11:41:30.892Z,6.07
2022-08-12T11:44:35.464Z,4.25
2022-08-12T11:46:51.200Z,2.28
2022-08-12T11:49:31.081Z,4.20
2022-08-12T11:51:59.420Z,1.52
2022-08-12T11:54:26.390Z,3.95
2022-08-12T11:57:02.068Z,1.77
2022-08-12T12:02:20.613Z,4.70
2022-08-12T12:04:53.033Z,4.88
2022-08-12T12:07:34.050Z,1.92
2022-08-12T12:10:15.498Z,2.90
2022-08-12T12:12:50.113Z,2.83
2022-08-12T12:15:24.572Z,1.35
2022-08-12T12:17:55.805Z,10.43
2022-08-12T12:20:26.069Z,1.40
2022-08-12T12:22:54.668Z,2.22
2022-08-12T12:25:21.439Z,4.47
2022-08-12T12:28:08.295Z,6.38
2022-08-12T12:30:55.164Z,6.07
2022-08-12T12:33:22.287Z,4.30
2022-08-12T12:36:18.694Z,4.55
2022-08-12T12:38:35.996Z,1.58
2022-08-12T12:41:16.525Z,2.58
2022-08-12T12:43:47.585Z,2.13
2022-08-12T12:46:30.787Z,5.38
2022-08-12T12:48:57.495Z,3.97
2022-08-12T12:51:49.525Z,3.17
2022-08-12T12:54:11.460Z,5.05
2022-08-12T12:56:42.808Z,1.92
2022-08-12T12:59:54.394Z,4.20
2022-08-12T13:02:08.047Z,2.10
2022-08-12T13:04:37.215Z,5.70
2022-08-12T13:07:05.715Z,4.32
2022-08-12T13:09:36.504Z,1.88
2022-08-12T13:12:08.903Z,1.67
2022-08-12T13:14:39.655Z,4.28
2022-08-12T13:17:09.551Z,3.38
2022-08-12T13:19:44.531Z,2.38
2022-08-12T13:22:19.228Z,1.75
2022-08-12T13:24:55.535Z,3.17
2022-08-12T13:27:48.267Z,6.45
2022-08-12T13:30:25.978Z,4.10
2022-08-12T13:32:58.504Z,8.63
2022-08-12T13:36:06.156Z,1.95
2022-08-12T13:38:38.752Z,2.78
2022-08-12T13:41:11.229Z,2.47
2022-08-12T13:43:41.371Z,5.45
2022-08-12T13:46:12.204Z,1.95
2022-08-12T13:48:45.103Z,2.08
2022-08-12T13:51:13.812Z,2.30
2022-08-12T13:53:57.667Z,5.75
2022-08-12T13:56:33.479Z,2.22
2022-08-12T13:59:05.603Z,5.32
2022-08-12T14:01:35.646Z,1.98
2022-08-12T14:04:11.404Z,2.50
2022-08-12T14:06:39.577Z,1.52
2022-08-12T14:09:17.830Z,4.07
2022-08-12T14:11:51.181Z,1.45
2022-08-12T14:14:27.171Z,2.22
2022-08-12T14:16:53.898Z,2.60
2022-08-12T14:19:23.109Z,1.60
2022-08-12T14:21:59.091Z,4.32
2022-08-12T14:24:27.324Z,6.40
2022-08-12T14:26:58.869Z,3.75
2022-08-12T14:29:56.202Z,4.30
2022-08-12T14:34:46.999Z,5.55
2022-08-12T14:37:54.948Z,5.70
2022-08-12T14:40:00.598Z,2.85
2022-08-12T14:42:28.406Z,1.48
2022-08-12T14:45:01.150Z,1.60
2022-08-12T14:47:35.613Z,2.90
2022-08-12T14:50:41.243Z,4.25
2022-08-12T14:58:28.611Z,3.13
2022-08-12T15:01:21.184Z,3.05
2022-08-12T15:03:53.882Z,3.88
2022-08-12T15:06:39.068Z,5.50
2022-08-12T15:09:13.717Z,2.45
2022-08-12T15:11:54.811Z,4.55
2022-08-12T15:14:22.272Z,4.68
2022-08-12T15:16:50.027Z,4.82
2022-08-12T15:20:11.885Z,6.03
2022-08-12T15:22:39.458Z,3.55
2022-08-12T15:27:22.464Z,1.92
2022-08-12T15:30:04.995Z,2.60
2022-08-12T15:32:32.897Z,4.00
2022-08-12T15:35:00.650Z,3.10
2022-08-12T15:38:08.265Z,5.55
2022-08-12T15:40:15.374Z,2.47
2022-08-12T15:42:59.724Z,4.30
2022-08-12T15:45:32.242Z,6.68
2022-08-12T15:48:04.504Z,4.75
2022-08-12T15:50:45.620Z,8.65
2022-08-12T15:53:15.393Z,5.15
2022-08-12T15:55:46.208Z,3.40
2022-08-12T15:58:16.645Z,4.60
2022-08-12T16:00:43.955Z,4.60
2022-08-12T16:03:13.593Z,3.00
2022-08-12T16:06:17.020Z,5.50
2022-08-12T16:08:36.404Z,2.65
2022-08-12T16:11:07.226Z,3.58
2022-08-12T16:13:35.243Z,2.30
2022-08-12T16:16:23.100Z,2.42
2022-08-12T16:18:56.259Z,1.65
2022-08-12T16:21:50.239Z,4.97
2022-08-12T16:24:11.609Z,2.42
2022-08-12T16:26:40.523Z,4.88
2022-08-12T16:29:15.585Z,4.20
2022-08-12T16:31:44.280Z,3.75
2022-08-12T16:34:41.985Z,7.03
2022-08-12T16:37:13.135Z,8.43
2022-08-12T16:39:59.623Z,4.50
2022-08-12T16:42:27.805Z,5.20
2022-08-12T16:45:02.568Z,1.88
2022-08-12T16:47:43.937Z,2.17
2022-08-12T16:50:31.083Z,2.85
2022-08-12T16:52:59.717Z,1.83
2022-08-12T16:55:41.970Z,4.57
2022-08-12T16:58:25.589Z,4.47
2022-08-12T17:00:55.619Z,1.95
2022-08-12T17:03:28.790Z,1.73
2022-08-12T17:05:56.149Z,1.30
2022-08-12T17:08:29.001Z,7.65
2022-08-12T17:10:56.629Z,5.78
2022-08-12T17:13:26.065Z,2.08
2022-08-12T17:16:05.689Z,3.80
2022-08-12T17:18:43.113Z,1.90
2022-08-12T17:21:12.362Z,2.05
2022-08-12T17:23:48.679Z,1.60
2022-08-12T17:26:22.244Z,4.07
2022-08-12T17:28:52.422Z,3.63
2022-08-12T17:31:59.837Z,4.93
2022-08-12T17:36:58.673Z,2.38
2022-08-12T17:42:34.513Z,1.70
2022-08-12T17:45:18.245Z,3.70
2022-08-12T17:48:01.198Z,6.15
2022-08-12T17:50:38.779Z,5.07
2022-08-12T17:53:10.731Z,2.10
2022-08-12T17:55:47.894Z,2.25
2022-08-12T17:58:35.580Z,3.47
2022-08-12T18:01:06.096Z,5.07
2022-08-12T18:04:05.886Z,2.95
2022-08-12T18:08:59.106Z,6.30
2022-08-12T18:12:05.746Z,5.13
2022-08-12T18:14:32.434Z,2.80
2022-08-12T18:17:01.618Z,1.48
2022-08-12T18:20:04.123Z,1.20
2022-08-12T18:25:04.964Z,1.90
2022-08-12T18:27:46.682Z,3.17
2022-08-12T18:30:20.545Z,4.03
2022-08-12T18:33:03.645Z,1.42
2022-08-12T18:35:47.691Z,4.25
2022-08-12T18:38:22.060Z,5.47
2022-08-12T18:41:10.018Z,3.88
2022-08-12T18:43:59.488Z,5.72
2022-08-12T18:46:32.245Z,5.55
2022-08-12T18:49:18.240Z,3.42
2022-08-12T18:52:02.185Z,3.85
2022-08-12T18:54:53.405Z,3.45
2022-08-12T18:58:05.773Z,2.15
2022-08-12T19:00:18.790Z,2.00
2022-08-12T19:02:50.530Z,3.38
2022-08-12T19:05:20.272Z,3.08
2022-08-12T19:08:01.023Z,5.82
2022-08-12T19:10:31.278Z,5.32
2022-08-12T19:13:23.143Z,2.50
2022-08-12T19:15:53.234Z,2.83
2022-08-12T19:18:22.266Z,2.03
2022-08-12T19:20:50.707Z,2.28
2022-08-12T19:23:21.021Z,1.63
2022-08-12T19:26:00.156Z,4.47
2022-08-12T19:28:35.288Z,2.15
2022-08-12T19:31:56.661Z,1.30
2022-08-12T19:35:06.622Z,2.75
2022-08-12T19:37:26.788Z,5.13
2022-08-12T19:40:09.345Z,2.03
2022-08-12T19:42:53.809Z,1.55
2022-08-12T19:45:24.698Z,3.00
2022-08-12T19:48:17.073Z,1.88
2022-08-12T19:50:50.130Z,3.65
2022-08-12T19:53:19.983Z,1.65
2022-08-12T19:55:54.146Z,1.98
2022-08-12T19:58:22.360Z,4.30
2022-08-12T20:00:53.279Z,4.05
2022-08-12T20:03:37.985Z,5.88
2022-08-12T20:06:16.089Z,7.55
2022-08-12T20:08:56.503Z,1.52
2022-08-12T20:12:11.335Z,2.45
2022-08-12T20:14:18.467Z,1.42
2022-08-12T20:17:01.530Z,4.55
2022-08-12T20:20:16.571Z,1.98
2022-08-12T20:22:31.364Z,1.63
2022-08-12T20:25:02.806Z,2.83
2022-08-12T20:28:04.885Z,1.73
2022-08-12T20:30:20.650Z,3.58
2022-08-12T20:33:05.165Z,2.20
2022-08-12T20:36:05.910Z,5.78
2022-08-12T20:38:26.458Z,6.23
2022-08-12T20:40:54.040Z,2.30
2022-08-12T20:43:24.236Z,5.25
2022-08-12T20:45:57.154Z,4.13
2022-08-12T20:48:26.210Z,2.40
2022-08-12T20:50:57.529Z,2.53
2022-08-12T20:53:26.546Z,3.33
2022-08-12T20:56:00.381Z,1.65
2022-08-12T20:58:28.391Z,1.85
2022-08-12T21:00:59.963Z,1.70
2022-08-12T21:03:52.371Z,3.40
2022-08-12T21:06:43.307Z,4.20
2022-08-12T21:09:10.343Z,9.20
2022-08-12T21:11:37.750Z,4.43
2022-08-12T21:14:06.021Z,5.82
2022-08-12T21:16:39.072Z,3.65
2022-08-12T21:19:08.213Z,1.75
2022-08-12T21:21:47.101Z,2.28
2022-08-12T21:24:17.701Z,2.30
2022-08-12T21:26:53.701Z,2.88
2022-08-12T21:29:21.824Z,2.67
2022-08-12T21:32:37.361Z,6.22
2022-08-12T21:34:36.188Z,3.77
2022-08-12T21:39:56.322Z,3.70
2022-08-12T21:42:27.984Z,4.95
2022-08-12T21:45:45.685Z,5.47
2022-08-12T21:47:46.433Z,2.38
2022-08-12T21:50:13.525Z,2.00
2022-08-12T21:52:42.056Z,4.88
2022-08-12T21:55:18.019Z,5.88
2022-08-12T22:00:33.217Z,2.55
2022-08-12T22:04:01.832Z,2.63
2022-08-12T22:06:19.879Z,2.85
2022-08-12T22:08:55.850Z,3.85
2022-08-12T22:11:42.246Z,3.83
2022-08-12T22:16:51.051Z,1.70
2022-08-12T22:19:19.671Z,2.78
2022-08-12T22:21:53.362Z,3.45
2022-08-12T22:24:26.231Z,3.00
2022-08-12T22:26:58.532Z,4.65
2022-08-12T22:29:43.649Z,3.30
2022-08-12T22:32:12.053Z,2.20
2022-08-12T22:34:39.404Z,5.90
2022-08-12T22:37:11.392Z,6.22
2022-08-12T22:39:46.487Z,11.35
2022-08-12T22:42:34.578Z,3.13
2022-08-12T22:45:48.818Z,5.25
2022-08-12T22:48:26.482Z,3.67
2022-08-12T22:50:59.111Z,2.17
2022-08-12T22:53:35.789Z,4.68
2022-08-12T22:56:08.133Z,5.15
2022-08-12T22:58:40.383Z,2.28
2022-08-12T23:01:10.576Z,2.78
2022-08-12T23:03:48.032Z,4.82
2022-08-12T23:06:19.720Z,8.65
2022-08-12T23:08:48.043Z,3.90
2022-08-12T23:11:16.256Z,2.92
2022-08-12T23:13:55.445Z,4.15
2022-08-12T23:16:33.167Z,6.93
2022-08-12T23:19:17.827Z,6.10
2022-08-12T23:22:06.629Z,2.20
2022-08-12T23:24:56.656Z,3.40
2022-08-12T23:27:51.885Z,3.10
2022-08-12T23:30:31.924Z,3.40
2022-08-12T23:33:19.737Z,2.70
2022-08-12T23:35:59.270Z,4.13
2022-08-12T23:38:32.302Z,5.07
2022-08-12T23:41:01.677Z,5.53
2022-08-12T23:43:39.416Z,3.35
2022-08-12T23:46:09.141Z,2.92
2022-08-12T23:48:37.559Z,2.88
2022-08-12T23:51:22.215Z,2.30
2022-08-12T23:53:54.974Z,3.08
2022-08-12T23:56:23.668Z,2.15
2022-08-12T23:58:52.518Z,2.47
